sensor_id;sensor_type;location;lat;lon;timestamp;P1;durP1;ratioP1;P2;durP2;ratioP2
15679;SDS011;15488;48.114;11.532;2022-09-29T00:00:20;0.83;;;0.83;;
15679;SDS011;15488;48.114;11.532;2022-09-29T00:02:48;1.53;;;1.10;;
15679;SDS011;15488;48.114;11.532;2022-09-29T00:05:17;1.00;;;0.90;;
15679;SDS011;15488;48.114;11.532;2022-09-29T00:07:44;1.60;;;0.90;;
15679;SDS011;15488;48.114;11.532;2022-09-29T00:10:12;1.70;;;0.90;;
15679;SDS011;15488;48.114;11.532;2022-09-29T00:12:39;1.37;;;1.03;;
15679;SDS011;15488;48.114;11.532;2022-09-29T00:15:07;0.90;;;0.90;;
15679;SDS011;15488;48.114;11.532;2022-09-29T00:17:35;1.40;;;1.13;;
15679;SDS011;15488;48.114;11.532;2022-09-29T00:20:03;2.03;;;0.90;;
15679;SDS011;15488;48.114;11.532;2022-09-29T00:22:32;0.87;;;0.80;;
15679;SDS011;15488;48.114;11.532;2022-09-29T00:25:00;0.90;;;0.80;;
15679;SDS011;15488;48.114;11.532;2022-09-29T00:27:27;0.80;;;0.80;;
15679;SDS011;15488;48.114;11.532;2022-09-29T00:29:55;1.23;;;0.70;;
15679;SDS011;15488;48.114;11.532;2022-09-29T00:32:22;1.03;;;0.70;;
15679;SDS011;15488;48.114;11.532;2022-09-29T00:34:50;0.73;;;0.73;;
15679;SDS011;15488;48.114;11.532;2022-09-29T00:37:17;1.10;;;0.70;;
15679;SDS011;15488;48.114;11.532;2022-09-29T00:39:46;1.13;;;0.77;;
15679;SDS011;15488;48.114;11.532;2022-09-29T00:42:16;0.60;;;0.60;;
15679;SDS011;15488;48.114;11.532;2022-09-29T00:44:56;1.73;;;0.70;;
15679;SDS011;15488;48.114;11.532;2022-09-29T00:47:32;1.00;;;0.70;;
15679;SDS011;15488;48.114;11.532;2022-09-29T00:50:04;0.80;;;0.80;;
15679;SDS011;15488;48.114;11.532;2022-09-29T00:52:39;1.03;;;0.80;;
15679;SDS011;15488;48.114;11.532;2022-09-29T00:55:11;1.67;;;0.70;;
15679;SDS011;15488;48.114;11.532;2022-09-29T00:57:42;0.60;;;0.60;;
15679;SDS011;15488;48.114;11.532;2022-09-29T01:00:13;0.97;;;0.80;;
15679;SDS011;15488;48.114;11.532;2022-09-29T01:02:42;0.80;;;0.70;;
15679;SDS011;15488;48.114;11.532;2022-09-29T01:05:12;1.10;;;0.80;;
15679;SDS011;15488;48.114;11.532;2022-09-29T01:07:45;0.83;;;0.70;;
15679;SDS011;15488;48.114;11.532;2022-09-29T01:10:14;1.43;;;0.70;;
15679;SDS011;15488;48.114;11.532;2022-09-29T01:12:42;0.83;;;0.70;;
15679;SDS011;15488;48.114;11.532;2022-09-29T01:15:12;0.57;;;0.57;;
15679;SDS011;15488;48.114;11.532;2022-09-29T01:17:42;1.67;;;0.90;;
15679;SDS011;15488;48.114;11.532;2022-09-29T01:20:11;1.53;;;0.80;;
15679;SDS011;15488;48.114;11.532;2022-09-29T01:25:50;1.40;;;0.83;;
15679;SDS011;15488;48.114;11.532;2022-09-29T01:29:00;0.90;;;0.80;;
15679;SDS011;15488;48.114;11.532;2022-09-29T01:31:45;1.37;;;0.80;;
15679;SDS011;15488;48.114;11.532;2022-09-29T01:34:22;2.73;;;0.87;;
15679;SDS011;15488;48.114;11.532;2022-09-29T01:37:01;1.20;;;0.80;;
15679;SDS011;15488;48.114;11.532;2022-09-29T01:39:37;0.73;;;0.73;;
15679;SDS011;15488;48.114;11.532;2022-09-29T01:42:12;0.90;;;0.77;;
15679;SDS011;15488;48.114;11.532;2022-09-29T01:44:44;0.70;;;0.60;;
15679;SDS011;15488;48.114;11.532;2022-09-29T01:47:17;0.80;;;0.80;;
15679;SDS011;15488;48.114;11.532;2022-09-29T01:49:49;1.03;;;0.73;;
15679;SDS011;15488;48.114;11.532;2022-09-29T01:52:26;0.90;;;0.73;;
15679;SDS011;15488;48.114;11.532;2022-09-29T01:54:58;1.50;;;0.90;;
15679;SDS011;15488;48.114;11.532;2022-09-29T01:57:28;0.83;;;0.83;;
15679;SDS011;15488;48.114;11.532;2022-09-29T02:00:02;1.50;;;0.83;;
15679;SDS011;15488;48.114;11.532;2022-09-29T02:02:35;1.80;;;0.80;;
15679;SDS011;15488;48.114;11.532;2022-09-29T02:05:09;1.10;;;1.00;;
15679;SDS011;15488;48.114;11.532;2022-09-29T02:07:43;1.13;;;0.90;;
15679;SDS011;15488;48.114;11.532;2022-09-29T02:10:14;1.27;;;0.90;;
15679;SDS011;15488;48.114;11.532;2022-09-29T02:12:47;3.13;;;0.90;;
15679;SDS011;15488;48.114;11.532;2022-09-29T02:15:17;0.87;;;0.83;;
15679;SDS011;15488;48.114;11.532;2022-09-29T02:17:49;3.50;;;1.10;;
15679;SDS011;15488;48.114;11.532;2022-09-29T02:20:17;1.57;;;1.00;;
15679;SDS011;15488;48.114;11.532;2022-09-29T02:22:46;1.87;;;1.27;;
15679;SDS011;15488;48.114;11.532;2022-09-29T02:25:14;1.70;;;1.30;;
15679;SDS011;15488;48.114;11.532;2022-09-29T02:27:44;2.00;;;1.33;;
15679;SDS011;15488;48.114;11.532;2022-09-29T02:30:14;1.50;;;1.40;;
15679;SDS011;15488;48.114;11.532;2022-09-29T02:32:42;1.47;;;1.30;;
15679;SDS011;15488;48.114;11.532;2022-09-29T02:35:13;1.37;;;1.27;;
15679;SDS011;15488;48.114;11.532;2022-09-29T02:37:46;1.43;;;1.33;;
15679;SDS011;15488;48.114;11.532;2022-09-29T02:40:28;1.60;;;1.30;;
15679;SDS011;15488;48.114;11.532;2022-09-29T02:43:11;2.00;;;1.10;;
15679;SDS011;15488;48.114;11.532;2022-09-29T02:45:53;1.70;;;1.03;;
15679;SDS011;15488;48.114;11.532;2022-09-29T02:48:35;2.67;;;1.10;;
15679;SDS011;15488;48.114;11.532;2022-09-29T02:51:26;2.60;;;1.30;;
15679;SDS011;15488;48.114;11.532;2022-09-29T02:54:06;1.73;;;1.53;;
15679;SDS011;15488;48.114;11.532;2022-09-29T02:56:56;1.80;;;1.60;;
15679;SDS011;15488;48.114;11.532;2022-09-29T02:59:34;1.80;;;1.60;;
15679;SDS011;15488;48.114;11.532;2022-09-29T03:02:07;1.80;;;1.30;;
15679;SDS011;15488;48.114;11.532;2022-09-29T03:04:35;2.60;;;1.60;;
15679;SDS011;15488;48.114;11.532;2022-09-29T03:07:04;1.20;;;1.10;;
15679;SDS011;15488;48.114;11.532;2022-09-29T03:09:31;0.97;;;0.97;;
15679;SDS011;15488;48.114;11.532;2022-09-29T03:11:59;1.07;;;0.97;;
15679;SDS011;15488;48.114;11.532;2022-09-29T03:14:30;1.10;;;1.00;;
15679;SDS011;15488;48.114;11.532;2022-09-29T03:16:57;0.90;;;0.90;;
15679;SDS011;15488;48.114;11.532;2022-09-29T03:19:24;1.03;;;1.03;;
15679;SDS011;15488;48.114;11.532;2022-09-29T03:21:52;0.97;;;0.90;;
15679;SDS011;15488;48.114;11.532;2022-09-29T03:24:21;0.90;;;0.80;;
15679;SDS011;15488;48.114;11.532;2022-09-29T03:26:48;1.70;;;1.00;;
15679;SDS011;15488;48.114;11.532;2022-09-29T03:29:16;0.73;;;0.70;;
15679;SDS011;15488;48.114;11.532;2022-09-29T03:31:43;0.80;;;0.70;;
15679;SDS011;15488;48.114;11.532;2022-09-29T03:34:11;1.43;;;0.83;;
15679;SDS011;15488;48.114;11.532;2022-09-29T03:36:38;0.77;;;0.70;;
15679;SDS011;15488;48.114;11.532;2022-09-29T03:39:06;2.30;;;0.80;;
15679;SDS011;15488;48.114;11.532;2022-09-29T03:41:35;0.70;;;0.60;;
15679;SDS011;15488;48.114;11.532;2022-09-29T03:44:03;0.70;;;0.70;;
15679;SDS011;15488;48.114;11.532;2022-09-29T03:46:30;1.00;;;0.80;;
15679;SDS011;15488;48.114;11.532;2022-09-29T03:48:58;0.80;;;0.80;;
15679;SDS011;15488;48.114;11.532;2022-09-29T03:51:25;0.67;;;0.67;;
15679;SDS011;15488;48.114;11.532;2022-09-29T03:53:52;1.10;;;0.77;;
15679;SDS011;15488;48.114;11.532;2022-09-29T03:56:20;0.70;;;0.60;;
15679;SDS011;15488;48.114;11.532;2022-09-29T03:58:49;0.77;;;0.70;;
15679;SDS011;15488;48.114;11.532;2022-09-29T04:01:19;0.90;;;0.80;;
15679;SDS011;15488;48.114;11.532;2022-09-29T04:03:47;0.80;;;0.70;;
15679;SDS011;15488;48.114;11.532;2022-09-29T04:06:14;2.43;;;0.60;;
15679;SDS011;15488;48.114;11.532;2022-09-29T04:08:42;0.70;;;0.70;;
15679;SDS011;15488;48.114;11.532;2022-09-29T04:11:09;1.80;;;0.50;;
15679;SDS011;15488;48.114;11.532;2022-09-29T04:13:37;0.63;;;0.63;;
15679;SDS011;15488;48.114;11.532;2022-09-29T04:16:06;0.97;;;0.87;;
15679;SDS011;15488;48.114;11.532;2022-09-29T04:18:34;0.90;;;0.77;;
15679;SDS011;15488;48.114;11.532;2022-09-29T04:21:04;1.20;;;0.73;;
15679;SDS011;15488;48.114;11.532;2022-09-29T04:23:32;0.60;;;0.60;;
15679;SDS011;15488;48.114;11.532;2022-09-29T04:26:00;0.80;;;0.77;;
15679;SDS011;15488;48.114;11.532;2022-09-29T04:28:29;0.93;;;0.60;;
15679;SDS011;15488;48.114;11.532;2022-09-29T04:30:57;0.93;;;0.80;;
15679;SDS011;15488;48.114;11.532;2022-09-29T04:33:26;0.83;;;0.70;;
15679;SDS011;15488;48.114;11.532;2022-09-29T04:35:55;0.93;;;0.70;;
15679;SDS011;15488;48.114;11.532;2022-09-29T04:38:23;0.73;;;0.73;;
15679;SDS011;15488;48.114;11.532;2022-09-29T04:40:51;1.07;;;0.80;;
15679;SDS011;15488;48.114;11.532;2022-09-29T04:43:18;0.83;;;0.73;;
15679;SDS011;15488;48.114;11.532;2022-09-29T04:45:46;0.93;;;0.80;;
15679;SDS011;15488;48.114;11.532;2022-09-29T04:48:13;1.07;;;0.60;;
15679;SDS011;15488;48.114;11.532;2022-09-29T04:50:42;0.77;;;0.77;;
15679;SDS011;15488;48.114;11.532;2022-09-29T04:53:10;0.63;;;0.63;;
15679;SDS011;15488;48.114;11.532;2022-09-29T04:55:37;0.87;;;0.80;;
15679;SDS011;15488;48.114;11.532;2022-09-29T04:58:05;1.00;;;0.70;;
15679;SDS011;15488;48.114;11.532;2022-09-29T05:00:33;1.77;;;0.90;;
15679;SDS011;15488;48.114;11.532;2022-09-29T05:03:00;0.67;;;0.67;;
15679;SDS011;15488;48.114;11.532;2022-09-29T05:05:28;1.23;;;1.00;;
15679;SDS011;15488;48.114;11.532;2022-09-29T05:07:57;0.80;;;0.80;;
15679;SDS011;15488;48.114;11.532;2022-09-29T05:10:28;2.83;;;0.80;;
15679;SDS011;15488;48.114;11.532;2022-09-29T05:12:55;1.90;;;0.73;;
15679;SDS011;15488;48.114;11.532;2022-09-29T05:15:23;1.00;;;0.90;;
15679;SDS011;15488;48.114;11.532;2022-09-29T05:17:50;1.50;;;0.93;;
15679;SDS011;15488;48.114;11.532;2022-09-29T05:20:18;1.03;;;0.77;;
15679;SDS011;15488;48.114;11.532;2022-09-29T05:22:45;0.70;;;0.70;;
15679;SDS011;15488;48.114;11.532;2022-09-29T05:25:14;1.93;;;0.83;;
15679;SDS011;15488;48.114;11.532;2022-09-29T05:27:42;1.30;;;0.90;;
15679;SDS011;15488;48.114;11.532;2022-09-29T05:30:09;1.80;;;1.07;;
15679;SDS011;15488;48.114;11.532;2022-09-29T05:32:37;1.30;;;1.00;;
15679;SDS011;15488;48.114;11.532;2022-09-29T05:35:06;1.10;;;0.87;;
15679;SDS011;15488;48.114;11.532;2022-09-29T05:37:34;0.80;;;0.80;;
15679;SDS011;15488;48.114;11.532;2022-09-29T05:40:02;0.93;;;0.90;;
15679;SDS011;15488;48.114;11.532;2022-09-29T05:42:31;1.50;;;0.93;;
15679;SDS011;15488;48.114;11.532;2022-09-29T05:44:58;2.43;;;0.87;;
15679;SDS011;15488;48.114;11.532;2022-09-29T05:47:25;1.90;;;1.00;;
15679;SDS011;15488;48.114;11.532;2022-09-29T05:49:53;2.13;;;1.03;;
15679;SDS011;15488;48.114;11.532;2022-09-29T05:52:20;1.03;;;0.80;;
15679;SDS011;15488;48.114;11.532;2022-09-29T05:54:48;1.43;;;1.00;;
15679;SDS011;15488;48.114;11.532;2022-09-29T05:57:16;1.00;;;0.90;;
15679;SDS011;15488;48.114;11.532;2022-09-29T05:59:46;1.20;;;1.10;;
15679;SDS011;15488;48.114;11.532;2022-09-29T06:02:13;1.23;;;1.10;;
15679;SDS011;15488;48.114;11.532;2022-09-29T06:04:41;1.97;;;0.97;;
15679;SDS011;15488;48.114;11.532;2022-09-29T06:07:08;1.50;;;0.90;;
15679;SDS011;15488;48.114;11.532;2022-09-29T06:09:35;2.53;;;1.30;;
15679;SDS011;15488;48.114;11.532;2022-09-29T06:12:03;1.80;;;1.20;;
15679;SDS011;15488;48.114;11.532;2022-09-29T06:14:30;2.00;;;1.40;;
15679;SDS011;15488;48.114;11.532;2022-09-29T06:16:59;1.83;;;1.67;;
15679;SDS011;15488;48.114;11.532;2022-09-29T06:19:27;2.97;;;1.97;;
15679;SDS011;15488;48.114;11.532;2022-09-29T06:21:54;2.83;;;2.20;;
15679;SDS011;15488;48.114;11.532;2022-09-29T06:24:22;3.87;;;2.00;;
15679;SDS011;15488;48.114;11.532;2022-09-29T06:26:49;2.37;;;1.80;;
15679;SDS011;15488;48.114;11.532;2022-09-29T06:29:17;2.30;;;1.87;;
15679;SDS011;15488;48.114;11.532;2022-09-29T06:31:44;2.07;;;1.70;;
15679;SDS011;15488;48.114;11.532;2022-09-29T06:34:14;2.13;;;1.77;;
15679;SDS011;15488;48.114;11.532;2022-09-29T06:36:41;2.13;;;1.80;;
15679;SDS011;15488;48.114;11.532;2022-09-29T06:39:28;1.77;;;1.67;;
15679;SDS011;15488;48.114;11.532;2022-09-29T06:41:55;2.73;;;1.80;;
15679;SDS011;15488;48.114;11.532;2022-09-29T06:44:24;2.60;;;2.00;;
15679;SDS011;15488;48.114;11.532;2022-09-29T06:46:54;2.30;;;1.60;;
15679;SDS011;15488;48.114;11.532;2022-09-29T06:49:24;1.93;;;1.77;;
15679;SDS011;15488;48.114;11.532;2022-09-29T06:51:51;2.20;;;2.00;;
15679;SDS011;15488;48.114;11.532;2022-09-29T06:54:21;4.03;;;2.23;;
15679;SDS011;15488;48.114;11.532;2022-09-29T06:56:50;3.10;;;2.80;;
15679;SDS011;15488;48.114;11.532;2022-09-29T06:59:19;3.13;;;2.70;;
15679;SDS011;15488;48.114;11.532;2022-09-29T07:01:46;4.30;;;2.73;;
15679;SDS011;15488;48.114;11.532;2022-09-29T07:04:14;3.00;;;2.00;;
15679;SDS011;15488;48.114;11.532;2022-09-29T07:06:44;2.50;;;2.23;;
15679;SDS011;15488;48.114;11.532;2022-09-29T07:09:12;2.37;;;2.17;;
15679;SDS011;15488;48.114;11.532;2022-09-29T07:11:40;2.57;;;2.20;;
15679;SDS011;15488;48.114;11.532;2022-09-29T07:14:10;3.70;;;2.30;;
15679;SDS011;15488;48.114;11.532;2022-09-29T07:16:38;2.60;;;2.37;;
15679;SDS011;15488;48.114;11.532;2022-09-29T07:19:05;2.77;;;2.30;;
15679;SDS011;15488;48.114;11.532;2022-09-29T07:21:33;2.37;;;2.00;;
15679;SDS011;15488;48.114;11.532;2022-09-29T07:24:02;2.53;;;2.10;;
15679;SDS011;15488;48.114;11.532;2022-09-29T07:26:29;5.37;;;3.40;;
15679;SDS011;15488;48.114;11.532;2022-09-29T07:28:57;1.93;;;1.73;;
15679;SDS011;15488;48.114;11.532;2022-09-29T07:31:24;2.93;;;2.07;;
15679;SDS011;15488;48.114;11.532;2022-09-29T07:33:53;2.27;;;2.07;;
15679;SDS011;15488;48.114;11.532;2022-09-29T07:36:21;2.40;;;2.20;;
15679;SDS011;15488;48.114;11.532;2022-09-29T07:38:50;2.53;;;1.80;;
15679;SDS011;15488;48.114;11.532;2022-09-29T07:41:20;1.77;;;1.50;;
15679;SDS011;15488;48.114;11.532;2022-09-29T07:43:48;1.70;;;1.60;;
15679;SDS011;15488;48.114;11.532;2022-09-29T07:46:15;2.20;;;1.63;;
15679;SDS011;15488;48.114;11.532;2022-09-29T07:48:43;2.57;;;1.70;;
15679;SDS011;15488;48.114;11.532;2022-09-29T07:51:11;1.90;;;1.20;;
15679;SDS011;15488;48.114;11.532;2022-09-29T07:53:40;2.10;;;1.70;;
15679;SDS011;15488;48.114;11.532;2022-09-29T07:56:09;2.83;;;1.50;;
15679;SDS011;15488;48.114;11.532;2022-09-29T07:58:39;2.03;;;1.40;;
15679;SDS011;15488;48.114;11.532;2022-09-29T08:01:08;2.43;;;1.40;;
15679;SDS011;15488;48.114;11.532;2022-09-29T08:03:37;2.17;;;1.30;;
15679;SDS011;15488;48.114;11.532;2022-09-29T08:06:06;1.97;;;1.03;;
15679;SDS011;15488;48.114;11.532;2022-09-29T08:08:34;2.43;;;1.10;;
15679;SDS011;15488;48.114;11.532;2022-09-29T08:11:02;1.23;;;1.13;;
15679;SDS011;15488;48.114;11.532;2022-09-29T08:13:31;2.80;;;1.20;;
15679;SDS011;15488;48.114;11.532;2022-09-29T08:16:01;1.97;;;1.30;;
15679;SDS011;15488;48.114;11.532;2022-09-29T08:18:30;1.30;;;1.20;;
15679;SDS011;15488;48.114;11.532;2022-09-29T08:20:59;1.20;;;1.10;;
15679;SDS011;15488;48.114;11.532;2022-09-29T08:23:26;2.20;;;1.20;;
15679;SDS011;15488;48.114;11.532;2022-09-29T08:25:59;2.57;;;1.33;;
15679;SDS011;15488;48.114;11.532;2022-09-29T08:28:27;1.50;;;1.10;;
15679;SDS011;15488;48.114;11.532;2022-09-29T08:30:55;1.33;;;0.90;;
15679;SDS011;15488;48.114;11.532;2022-09-29T08:33:24;1.30;;;0.90;;
15679;SDS011;15488;48.114;11.532;2022-09-29T08:35:55;1.27;;;0.87;;
15679;SDS011;15488;48.114;11.532;2022-09-29T08:38:23;2.80;;;1.60;;
15679;SDS011;15488;48.114;11.532;2022-09-29T08:40:53;2.30;;;1.40;;
15679;SDS011;15488;48.114;11.532;2022-09-29T08:43:23;3.73;;;1.30;;
15679;SDS011;15488;48.114;11.532;2022-09-29T08:45:55;1.53;;;1.10;;
15679;SDS011;15488;48.114;11.532;2022-09-29T08:48:30;1.30;;;1.00;;
15679;SDS011;15488;48.114;11.532;2022-09-29T08:51:01;1.30;;;0.70;;
15679;SDS011;15488;48.114;11.532;2022-09-29T08:53:32;0.97;;;0.80;;
15679;SDS011;15488;48.114;11.532;2022-09-29T08:56:04;1.03;;;0.90;;
15679;SDS011;15488;48.114;11.532;2022-09-29T08:58:33;1.27;;;1.03;;
15679;SDS011;15488;48.114;11.532;2022-09-29T09:01:07;1.90;;;1.20;;
15679;SDS011;15488;48.114;11.532;2022-09-29T09:06:41;0.87;;;0.80;;
15679;SDS011;15488;48.114;11.532;2022-09-29T09:09:20;2.60;;;1.00;;
15679;SDS011;15488;48.114;11.532;2022-09-29T09:12:00;1.10;;;0.90;;
15679;SDS011;15488;48.114;11.532;2022-09-29T09:14:49;0.97;;;0.80;;
15679;SDS011;15488;48.114;11.532;2022-09-29T09:17:29;1.07;;;0.60;;
15679;SDS011;15488;48.114;11.532;2022-09-29T09:20:14;1.37;;;0.90;;
15679;SDS011;15488;48.114;11.532;2022-09-29T09:22:53;0.90;;;0.80;;
15679;SDS011;15488;48.114;11.532;2022-09-29T09:25:26;0.80;;;0.63;;
15679;SDS011;15488;48.114;11.532;2022-09-29T09:28:00;1.20;;;0.67;;
15679;SDS011;15488;48.114;11.532;2022-09-29T09:30:33;1.07;;;0.83;;
15679;SDS011;15488;48.114;11.532;2022-09-29T09:33:06;0.60;;;0.60;;
15679;SDS011;15488;48.114;11.532;2022-09-29T09:35:40;1.30;;;0.60;;
15679;SDS011;15488;48.114;11.532;2022-09-29T09:38:11;1.30;;;0.60;;
15679;SDS011;15488;48.114;11.532;2022-09-29T09:40:44;0.70;;;0.63;;
15679;SDS011;15488;48.114;11.532;2022-09-29T09:43:13;0.60;;;0.50;;
15679;SDS011;15488;48.114;11.532;2022-09-29T09:45:46;3.43;;;1.20;;
15679;SDS011;15488;48.114;11.532;2022-09-29T09:48:20;0.83;;;0.70;;
15679;SDS011;15488;48.114;11.532;2022-09-29T09:50:56;1.50;;;0.60;;
15679;SDS011;15488;48.114;11.532;2022-09-29T09:53:28;0.70;;;0.43;;
15679;SDS011;15488;48.114;11.532;2022-09-29T09:56:04;0.70;;;0.30;;
15679;SDS011;15488;48.114;11.532;2022-09-29T09:58:56;0.50;;;0.37;;
15679;SDS011;15488;48.114;11.532;2022-09-29T10:01:33;0.50;;;0.40;;
15679;SDS011;15488;48.114;11.532;2022-09-29T10:04:00;0.43;;;0.43;;
15679;SDS011;15488;48.114;11.532;2022-09-29T10:06:29;1.17;;;0.40;;
15679;SDS011;15488;48.114;11.532;2022-09-29T10:08:57;1.43;;;0.50;;
15679;SDS011;15488;48.114;11.532;2022-09-29T10:11:25;0.40;;;0.33;;
15679;SDS011;15488;48.114;11.532;2022-09-29T10:13:57;2.10;;;0.50;;
15679;SDS011;15488;48.114;11.532;2022-09-29T10:16:27;0.73;;;0.53;;
15679;SDS011;15488;48.114;11.532;2022-09-29T10:19:00;0.80;;;0.53;;
15679;SDS011;15488;48.114;11.532;2022-09-29T10:21:36;0.50;;;0.43;;
15679;SDS011;15488;48.114;11.532;2022-09-29T10:24:05;0.50;;;0.50;;
15679;SDS011;15488;48.114;11.532;2022-09-29T10:26:45;0.80;;;0.50;;
15679;SDS011;15488;48.114;11.532;2022-09-29T10:29:17;1.03;;;0.80;;
15679;SDS011;15488;48.114;11.532;2022-09-29T10:31:58;1.83;;;0.60;;
15679;SDS011;15488;48.114;11.532;2022-09-29T10:34:31;0.93;;;0.60;;
15679;SDS011;15488;48.114;11.532;2022-09-29T10:37:03;0.93;;;0.70;;
15679;SDS011;15488;48.114;11.532;2022-09-29T10:39:45;11.57;;;8.90;;
15679;SDS011;15488;48.114;11.532;2022-09-29T10:42:19;10.90;;;3.30;;
15679;SDS011;15488;48.114;11.532;2022-09-29T10:44:50;3.00;;;1.73;;
15679;SDS011;15488;48.114;11.532;2022-09-29T10:47:20;1.60;;;1.20;;
15679;SDS011;15488;48.114;11.532;2022-09-29T10:49:58;0.80;;;0.80;;
15679;SDS011;15488;48.114;11.532;2022-09-29T10:52:35;0.83;;;0.70;;
15679;SDS011;15488;48.114;11.532;2022-09-29T10:55:03;0.93;;;0.73;;
15679;SDS011;15488;48.114;11.532;2022-09-29T10:57:31;0.87;;;0.80;;
15679;SDS011;15488;48.114;11.532;2022-09-29T11:00:01;3.70;;;2.47;;
15679;SDS011;15488;48.114;11.532;2022-09-29T11:02:32;2.87;;;2.13;;
15679;SDS011;15488;48.114;11.532;2022-09-29T11:05:03;1.77;;;1.37;;
15679;SDS011;15488;48.114;11.532;2022-09-29T11:07:44;2.30;;;1.43;;
15679;SDS011;15488;48.114;11.532;2022-09-29T11:10:25;1.57;;;1.10;;
15679;SDS011;15488;48.114;11.532;2022-09-29T11:12:54;1.60;;;1.10;;
15679;SDS011;15488;48.114;11.532;2022-09-29T11:15:25;1.53;;;1.00;;
15679;SDS011;15488;48.114;11.532;2022-09-29T11:17:54;1.50;;;0.90;;
15679;SDS011;15488;48.114;11.532;2022-09-29T11:20:24;1.27;;;0.80;;
15679;SDS011;15488;48.114;11.532;2022-09-29T11:22:59;0.67;;;0.67;;
15679;SDS011;15488;48.114;11.532;2022-09-29T11:25:41;3.13;;;2.70;;
15679;SDS011;15488;48.114;11.532;2022-09-29T11:28:32;2.00;;;1.80;;
15679;SDS011;15488;48.114;11.532;2022-09-29T11:31:12;1.10;;;1.00;;
15679;SDS011;15488;48.114;11.532;2022-09-29T11:33:50;0.90;;;0.90;;
15679;SDS011;15488;48.114;11.532;2022-09-29T11:36:27;1.30;;;1.10;;
15679;SDS011;15488;48.114;11.532;2022-09-29T11:39:09;1.87;;;1.40;;
15679;SDS011;15488;48.114;11.532;2022-09-29T11:42:04;2.57;;;1.77;;
15679;SDS011;15488;48.114;11.532;2022-09-29T11:44:53;3.17;;;2.40;;
15679;SDS011;15488;48.114;11.532;2022-09-29T11:50:24;1.20;;;1.07;;
15679;SDS011;15488;48.114;11.532;2022-09-29T11:56:02;1.20;;;1.10;;
15679;SDS011;15488;48.114;11.532;2022-09-29T11:58:52;1.10;;;0.80;;
15679;SDS011;15488;48.114;11.532;2022-09-29T12:01:42;1.03;;;0.80;;
15679;SDS011;15488;48.114;11.532;2022-09-29T12:04:22;1.40;;;0.80;;
15679;SDS011;15488;48.114;11.532;2022-09-29T12:07:09;1.10;;;0.90;;
15679;SDS011;15488;48.114;11.532;2022-09-29T12:10:13;0.87;;;0.80;;
15679;SDS011;15488;48.114;11.532;2022-09-29T12:12:48;2.77;;;1.40;;
15679;SDS011;15488;48.114;11.532;2022-09-29T12:15:25;2.03;;;1.30;;
15679;SDS011;15488;48.114;11.532;2022-09-29T12:18:01;1.87;;;1.20;;
15679;SDS011;15488;48.114;11.532;2022-09-29T12:20:36;2.93;;;2.17;;
15679;SDS011;15488;48.114;11.532;2022-09-29T12:23:09;1.70;;;1.40;;
15679;SDS011;15488;48.114;11.532;2022-09-29T12:25:40;2.60;;;1.70;;
15679;SDS011;15488;48.114;11.532;2022-09-29T12:28:17;2.07;;;1.70;;
15679;SDS011;15488;48.114;11.532;2022-09-29T12:30:49;2.20;;;1.20;;
15679;SDS011;15488;48.114;11.532;2022-09-29T12:33:21;1.20;;;1.10;;
15679;SDS011;15488;48.114;11.532;2022-09-29T12:35:54;1.33;;;1.10;;
15679;SDS011;15488;48.114;11.532;2022-09-29T12:38:54;1.57;;;1.10;;
15679;SDS011;15488;48.114;11.532;2022-09-29T12:41:27;0.97;;;0.80;;
15679;SDS011;15488;48.114;11.532;2022-09-29T12:44:04;1.30;;;1.10;;
15679;SDS011;15488;48.114;11.532;2022-09-29T12:46:40;1.10;;;0.90;;
15679;SDS011;15488;48.114;11.532;2022-09-29T12:49:13;1.30;;;1.10;;
15679;SDS011;15488;48.114;11.532;2022-09-29T12:51:46;1.00;;;0.90;;
15679;SDS011;15488;48.114;11.532;2022-09-29T12:54:16;1.63;;;1.00;;
15679;SDS011;15488;48.114;11.532;2022-09-29T12:56:48;1.20;;;1.10;;
15679;SDS011;15488;48.114;11.532;2022-09-29T12:59:26;1.20;;;1.00;;
15679;SDS011;15488;48.114;11.532;2022-09-29T13:01:58;0.83;;;0.83;;
15679;SDS011;15488;48.114;11.532;2022-09-29T13:07:35;1.03;;;0.80;;
15679;SDS011;15488;48.114;11.532;2022-09-29T13:10:22;1.20;;;1.07;;
15679;SDS011;15488;48.114;11.532;2022-09-29T13:13:20;1.80;;;1.00;;
15679;SDS011;15488;48.114;11.532;2022-09-29T13:16:14;2.00;;;1.20;;
15679;SDS011;15488;48.114;11.532;2022-09-29T13:22:10;1.50;;;1.10;;
15679;SDS011;15488;48.114;11.532;2022-09-29T13:24:52;2.13;;;1.33;;
15679;SDS011;15488;48.114;11.532;2022-09-29T13:27:28;1.70;;;1.30;;
15679;SDS011;15488;48.114;11.532;2022-09-29T13:30:04;1.53;;;1.43;;
15679;SDS011;15488;48.114;11.532;2022-09-29T13:32:40;2.23;;;1.37;;
15679;SDS011;15488;48.114;11.532;2022-09-29T13:35:11;4.17;;;3.07;;
15679;SDS011;15488;48.114;11.532;2022-09-29T13:37:45;6.27;;;4.97;;
15679;SDS011;15488;48.114;11.532;2022-09-29T13:40:19;6.67;;;3.93;;
15679;SDS011;15488;48.114;11.532;2022-09-29T13:42:49;3.67;;;2.70;;
15679;SDS011;15488;48.114;11.532;2022-09-29T13:54:23;3.47;;;2.50;;
15679;SDS011;15488;48.114;11.532;2022-09-29T13:59:46;5.00;;;3.80;;
15679;SDS011;15488;48.114;11.532;2022-09-29T14:02:40;4.90;;;3.47;;
15679;SDS011;15488;48.114;11.532;2022-09-29T14:08:16;2.80;;;2.20;;
15679;SDS011;15488;48.114;11.532;2022-09-29T14:10:57;2.13;;;1.90;;
15679;SDS011;15488;48.114;11.532;2022-09-29T14:13:44;2.30;;;1.80;;
15679;SDS011;15488;48.114;11.532;2022-09-29T14:16:23;2.00;;;1.83;;
15679;SDS011;15488;48.114;11.532;2022-09-29T14:19:15;3.33;;;1.77;;
15679;SDS011;15488;48.114;11.532;2022-09-29T14:21:59;3.47;;;2.27;;
15679;SDS011;15488;48.114;11.532;2022-09-29T14:24:41;2.10;;;1.90;;
15679;SDS011;15488;48.114;11.532;2022-09-29T14:27:20;3.93;;;2.00;;
15679;SDS011;15488;48.114;11.532;2022-09-29T14:30:03;2.30;;;1.93;;
15679;SDS011;15488;48.114;11.532;2022-09-29T14:32:38;2.53;;;2.17;;
15679;SDS011;15488;48.114;11.532;2022-09-29T14:35:18;2.17;;;1.97;;
15679;SDS011;15488;48.114;11.532;2022-09-29T14:37:52;2.83;;;2.53;;
15679;SDS011;15488;48.114;11.532;2022-09-29T14:40:25;2.33;;;2.13;;
15679;SDS011;15488;48.114;11.532;2022-09-29T14:43:08;2.87;;;2.57;;
15679;SDS011;15488;48.114;11.532;2022-09-29T14:49:05;2.47;;;2.27;;
15679;SDS011;15488;48.114;11.532;2022-09-29T14:52:09;3.07;;;2.63;;
15679;SDS011;15488;48.114;11.532;2022-09-29T14:54:46;2.83;;;2.53;;
15679;SDS011;15488;48.114;11.532;2022-09-29T14:57:27;5.37;;;2.57;;
15679;SDS011;15488;48.114;11.532;2022-09-29T15:00:11;2.90;;;2.37;;
15679;SDS011;15488;48.114;11.532;2022-09-29T15:02:43;3.17;;;2.50;;
15679;SDS011;15488;48.114;11.532;2022-09-29T15:05:20;3.37;;;2.57;;
15679;SDS011;15488;48.114;11.532;2022-09-29T15:07:51;3.27;;;2.70;;
15679;SDS011;15488;48.114;11.532;2022-09-29T15:10:20;2.77;;;2.47;;
15679;SDS011;15488;48.114;11.532;2022-09-29T15:12:49;3.07;;;2.47;;
15679;SDS011;15488;48.114;11.532;2022-09-29T15:15:31;3.43;;;2.50;;
15679;SDS011;15488;48.114;11.532;2022-09-29T15:18:08;3.73;;;2.87;;
15679;SDS011;15488;48.114;11.532;2022-09-29T15:20:52;3.17;;;2.87;;
15679;SDS011;15488;48.114;11.532;2022-09-29T15:26:22;3.97;;;2.50;;
15679;SDS011;15488;48.114;11.532;2022-09-29T15:28:56;3.93;;;3.17;;
15679;SDS011;15488;48.114;11.532;2022-09-29T15:31:26;3.10;;;2.80;;
15679;SDS011;15488;48.114;11.532;2022-09-29T15:33:58;2.90;;;2.70;;
15679;SDS011;15488;48.114;11.532;2022-09-29T15:36:27;2.87;;;2.43;;
15679;SDS011;15488;48.114;11.532;2022-09-29T15:38:59;3.87;;;3.27;;
15679;SDS011;15488;48.114;11.532;2022-09-29T15:41:30;7.57;;;6.13;;
15679;SDS011;15488;48.114;11.532;2022-09-29T15:43:59;9.17;;;7.10;;